Time;durP1;ratioP1;P1;durP2;ratioP2;P2;SDS_P1;SDS_P2;PMS_P1;PMS_P2;Temp;Humidity;BMP_temperature;BMP_pressure;BME280_temperature;BME280_humidity;BME280_pressure;Samples;Min_cycle;Max_cycle;Signal;HPM_P1;HPM_P2
2022/03/04 00:00:05;;;;;;;75.05;37.00;;;0.50;99.90;;;;;;5022598;28;20074;-82
2022/03/04 00:02:32;;;;;;;79.78;37.72;;;0.40;99.90;;;;;;5022182;28;20061;-83
2022/03/04 00:04:59;;;;;;;77.13;37.08;;;0.50;99.90;;;;;;5024326;28;20049;-83
2022/03/04 00:07:26;;;;;;;73.88;36.10;;;0.50;99.90;;;;;;5023845;28;20073;-83
2022/03/04 00:09:52;;;;;;;83.30;38.95;;;0.50;99.90;;;;;;5022235;28;20076;-83
2022/03/04 00:12:19;;;;;;;81.07;36.10;;;0.50;99.90;;;;;;5023097;28;20078;-83
2022/03/04 00:14:46;;;;;;;76.97;36.38;;;0.50;99.90;;;;;;5022117;28;20132;-82
2022/03/04 00:17:13;;;;;;;83.03;36.75;;;0.50;99.90;;;;;;5020682;28;20502;-82
2022/03/04 00:19:41;;;;;;;76.00;35.70;;;0.40;99.90;;;;;;5022119;28;20474;-82
2022/03/04 00:22:08;;;;;;;75.32;37.03;;;0.50;99.90;;;;;;5022528;28;20065;-82
2022/03/04 00:24:35;;;;;;;77.25;35.53;;;0.50;99.90;;;;;;5019735;28;20096;-82
2022/03/04 00:27:02;;;;;;;84.07;37.67;;;0.50;99.90;;;;;;5022521;28;20096;-82
2022/03/04 00:29:28;;;;;;;76.50;36.17;;;0.50;99.90;;;;;;5021815;28;20130;-82
2022/03/04 00:31:55;;;;;;;76.10;35.53;;;0.40;99.90;;;;;;5021992;28;20092;-82
2022/03/04 00:34:22;;;;;;;81.28;36.92;;;0.30;99.90;;;;;;5021791;28;20049;-82
2022/03/04 00:36:49;;;;;;;81.55;36.60;;;0.30;99.90;;;;;;5021370;28;20129;-82
2022/03/04 00:39:16;;;;;;;80.32;37.75;;;0.30;99.90;;;;;;5020737;28;20521;-82
2022/03/04 00:41:44;;;;;;;84.57;36.20;;;0.20;99.90;;;;;;5020749;28;20485;-82
2022/03/04 00:44:11;;;;;;;77.85;36.05;;;0.10;99.90;;;;;;5020184;28;20213;-82
2022/03/04 00:46:38;;;;;;;79.45;36.45;;;0.10;99.90;;;;;;5022048;28;20109;-82
2022/03/04 00:49:05;;;;;;;77.22;35.42;;;0.10;99.90;;;;;;5020938;28;20053;-82
2022/03/04 00:51:32;;;;;;;76.32;34.60;;;0.10;99.90;;;;;;5022237;28;20533;-82
2022/03/04 00:53:59;;;;;;;82.40;35.42;;;0.10;99.90;;;;;;5021005;28;20435;-82
2022/03/04 00:56:26;;;;;;;84.80;36.42;;;0.10;99.90;;;;;;5022768;28;20088;-82
2022/03/04 00:58:53;;;;;;;74.80;34.53;;;0.20;99.90;;;;;;5022940;28;20045;-82
2022/03/04 01:01:19;;;;;;;75.05;34.58;;;0.20;99.90;;;;;;5022790;28;20073;-82
2022/03/04 01:03:46;;;;;;;75.93;33.80;;;0.20;99.90;;;;;;5025158;28;20057;-82
2022/03/04 01:06:13;;;;;;;71.50;33.78;;;0.10;99.90;;;;;;5022002;28;20085;-82
2022/03/04 01:08:40;;;;;;;77.68;34.20;;;0.10;99.90;;;;;;5024175;28;20050;-83
2022/03/04 01:11:07;;;;;;;79.80;34.75;;;0.10;99.90;;;;;;5021773;28;20115;-82
2022/03/04 01:13:33;;;;;;;71.07;32.92;;;0.20;99.90;;;;;;5022944;28;20057;-82
2022/03/04 01:16:00;;;;;;;79.97;34.97;;;0.20;99.90;;;;;;5022414;28;20484;-82
2022/03/04 01:18:28;;;;;;;73.05;34.53;;;0.30;99.90;;;;;;5023799;28;20050;-83
2022/03/04 01:20:55;;;;;;;79.65;35.03;;;0.20;99.90;;;;;;5024295;28;20046;-83
2022/03/04 01:23:21;;;;;;;75.82;34.70;;;0.20;99.90;;;;;;5023710;28;20089;-81
2022/03/04 01:25:52;;;;;;;78.70;35.78;;;0.20;99.90;;;;;;5042370;28;20109;-83
2022/03/04 01:28:20;;;;;;;67.25;33.15;;;0.10;99.90;;;;;;5026065;28;20045;-83
2022/03/04 01:30:48;;;;;;;81.10;34.95;;;0.00;99.90;;;;;;5044473;28;20049;-83
2022/03/04 01:33:15;;;;;;;73.95;34.50;;;0.00;99.90;;;;;;5043179;28;20080;-83
2022/03/04 01:35:42;;;;;;;73.32;33.72;;;-0.10;99.90;;;;;;5044699;28;20081;-82
2022/03/04 01:38:09;;;;;;;80.57;33.80;;;0.00;99.90;;;;;;5029883;28;20053;-83
2022/03/04 01:40:36;;;;;;;78.72;35.17;;;-0.10;99.90;;;;;;5046237;28;20546;-83
2022/03/04 01:43:03;;;;;;;78.20;34.95;;;-0.10;99.90;;;;;;5028045;28;20076;-83
2022/03/04 01:45:30;;;;;;;81.50;36.25;;;-0.20;99.90;;;;;;5041256;28;20049;-81
2022/03/04 01:47:57;;;;;;;80.20;36.47;;;-0.20;99.90;;;;;;5034310;28;20129;-82
2022/03/04 01:50:24;;;;;;;80.32;37.25;;;-0.20;99.90;;;;;;5017856;28;20445;-81
2022/03/04 01:52:51;;;;;;;82.05;35.63;;;-0.20;99.90;;;;;;5035105;28;20148;-81
2022/03/04 01:55:18;;;;;;;79.75;36.17;;;-0.20;99.90;;;;;;5018040;28;20416;-81
2022/03/04 01:57:45;;;;;;;71.95;32.70;;;-0.10;99.90;;;;;;5017937;28;20084;-81
2022/03/04 02:00:13;;;;;;;73.50;35.22;;;-0.10;99.90;;;;;;5017691;28;20095;-81
2022/03/04 02:02:42;;;;;;;82.25;35.30;;;0.00;99.90;;;;;;5017481;28;20145;-81
2022/03/04 02:05:17;;;;;;;80.15;33.78;;;0.00;99.90;;;;;;5018324;28;20053;-81
2022/03/04 02:07:44;;;;;;;75.22;36.15;;;0.00;99.90;;;;;;5041193;28;20481;-83
2022/03/04 02:10:11;;;;;;;79.55;35.15;;;0.00;99.90;;;;;;5020919;28;20049;-83
2022/03/04 02:12:41;;;;;;;76.10;34.50;;;-0.10;99.90;;;;;;5040439;28;20076;-82
2022/03/04 02:15:09;;;;;;;78.65;34.08;;;-0.10;99.90;;;;;;5024655;28;20072;-83
2022/03/04 02:17:35;;;;;;;77.55;34.72;;;0.00;99.90;;;;;;5017312;28;20053;-81
2022/03/04 02:20:06;;;;;;;73.32;35.60;;;0.00;99.90;;;;;;5035369;28;20060;-82
2022/03/04 02:22:33;;;;;;;78.05;35.95;;;0.00;99.90;;;;;;5018258;28;20128;-81
2022/03/04 02:25:00;;;;;;;77.70;34.80;;;0.00;99.90;;;;;;5017467;28;20069;-82
2022/03/04 02:27:27;;;;;;;74.70;34.67;;;0.00;99.90;;;;;;5036413;28;20071;-82
2022/03/04 02:29:54;;;;;;;72.32;33.58;;;0.00;99.90;;;;;;5034641;28;20209;-82
2022/03/04 02:32:21;;;;;;;72.13;33.97;;;-0.20;99.90;;;;;;5035125;28;20506;-82
2022/03/04 02:34:48;;;;;;;77.47;34.03;;;-0.30;99.90;;;;;;5034821;28;20081;-81
2022/03/04 02:37:14;;;;;;;76.13;33.83;;;-0.30;99.90;;;;;;5035352;28;20056;-81
2022/03/04 02:39:41;;;;;;;77.60;34.92;;;-0.30;99.90;;;;;;5016814;28;20140;-81
2022/03/04 02:42:08;;;;;;;76.45;34.47;;;-0.30;99.90;;;;;;5017171;28;20049;-82
2022/03/04 02:44:35;;;;;;;72.72;32.47;;;-0.30;99.90;;;;;;5034794;28;20107;-82
2022/03/04 02:47:03;;;;;;;69.95;31.75;;;-0.20;99.90;;;;;;5017996;28;20418;-82
2022/03/04 02:49:30;;;;;;;70.72;33.05;;;-0.20;99.90;;;;;;5017925;28;20510;-81
2022/03/04 02:51:57;;;;;;;80.55;34.10;;;-0.20;99.90;;;;;;5034348;28;20068;-81
2022/03/04 02:54:24;;;;;;;75.03;33.50;;;-0.20;99.90;;;;;;5016906;28;20132;-82
2022/03/04 02:56:51;;;;;;;80.00;33.33;;;-0.20;99.90;;;;;;5017100;28;20133;-82
2022/03/04 02:59:18;;;;;;;69.93;33.33;;;-0.20;99.90;;;;;;5034445;28;20084;-81
2022/03/04 03:01:44;;;;;;;73.75;34.22;;;-0.10;99.90;;;;;;5035224;28;20426;-81
2022/03/04 03:04:12;;;;;;;75.10;33.40;;;-0.20;99.90;;;;;;5034375;28;20054;-82
2022/03/04 03:06:38;;;;;;;76.07;32.58;;;-0.20;99.90;;;;;;5034650;28;20136;-81
2022/03/04 03:09:05;;;;;;;73.93;32.65;;;-0.30;99.90;;;;;;5017362;28;20124;-81
2022/03/04 03:11:32;;;;;;;71.05;30.63;;;-0.30;99.90;;;;;;5017137;28;20137;-82
2022/03/04 03:13:59;;;;;;;67.03;29.70;;;-0.30;99.90;;;;;;5016606;28;20525;-82
2022/03/04 03:16:25;;;;;;;57.22;29.23;;;-0.40;99.90;;;;;;5036423;28;20077;-82
2022/03/04 03:18:52;;;;;;;71.00;30.50;;;-0.40;99.90;;;;;;5034619;28;20482;-82
2022/03/04 03:21:19;;;;;;;63.72;28.92;;;-0.30;99.90;;;;;;5016951;28;20132;-82
2022/03/04 03:23:46;;;;;;;68.50;30.48;;;-0.30;99.90;;;;;;5016631;28;20500;-82
2022/03/04 03:26:13;;;;;;;74.00;31.52;;;-0.30;99.90;;;;;;5017520;28;20080;-81
2022/03/04 03:28:40;;;;;;;69.20;31.00;;;-0.40;99.90;;;;;;5032647;28;20045;-82
2022/03/04 03:31:07;;;;;;;62.70;28.98;;;-0.40;99.90;;;;;;5017450;28;20076;-82
2022/03/04 03:33:37;;;;;;;66.68;30.08;;;-0.40;99.90;;;;;;5034823;28;20048;-82
2022/03/04 03:36:04;;;;;;;61.67;28.63;;;-0.50;99.90;;;;;;5035089;28;20144;-81
2022/03/04 03:38:31;;;;;;;65.53;29.45;;;-0.40;99.90;;;;;;5017728;28;20057;-82
2022/03/04 03:40:58;;;;;;;64.90;29.85;;;-0.40;99.90;;;;;;5035316;28;20133;-82
2022/03/04 03:43:38;;;;;;;66.72;28.35;;;-0.50;99.90;;;;;;5018285;28;20556;-81
2022/03/04 03:46:05;;;;;;;72.80;30.35;;;-0.60;99.90;;;;;;5034489;28;20103;-82
2022/03/04 03:48:32;;;;;;;68.47;31.48;;;-0.60;99.90;;;;;;5017180;28;20509;-82
2022/03/04 03:51:00;;;;;;;66.72;28.30;;;-0.60;99.90;;;;;;5035235;28;20111;-82
2022/03/04 03:53:27;;;;;;;69.03;29.40;;;-0.60;99.90;;;;;;5035050;28;20156;-82
2022/03/04 03:55:53;;;;;;;63.88;28.55;;;-0.70;99.90;;;;;;5017251;28;20124;-82
2022/03/04 03:58:20;;;;;;;60.58;28.15;;;-0.70;99.90;;;;;;5034346;28;20573;-81
2022/03/04 04:00:47;;;;;;;61.00;27.40;;;-0.70;99.90;;;;;;5017144;28;20196;-81
2022/03/04 04:03:14;;;;;;;59.83;26.15;;;-0.70;99.90;;;;;;5035270;28;20123;-82
2022/03/04 04:05:41;;;;;;;61.42;27.10;;;-0.70;99.90;;;;;;5018578;28;20053;-82
2022/03/04 04:08:07;;;;;;;56.65;26.85;;;-0.70;99.90;;;;;;5017336;28;20128;-83
2022/03/04 04:10:34;;;;;;;55.58;26.40;;;-0.70;99.90;;;;;;5018810;28;20128;-82
2022/03/04 04:13:01;;;;;;;60.85;26.35;;;-0.70;99.90;;;;;;5021265;28;20100;-81
2022/03/04 04:15:27;;;;;;;61.35;25.67;;;-0.70;99.90;;;;;;5039193;28;20099;-81
2022/03/04 04:17:54;;;;;;;66.60;26.92;;;-0.80;99.90;;;;;;5038938;28;20050;-82
2022/03/04 04:20:21;;;;;;;65.07;28.52;;;-0.90;99.90;;;;;;5039366;28;20087;-82
2022/03/04 04:22:47;;;;;;;61.38;26.90;;;-0.90;99.90;;;;;;5021734;28;20095;-82
2022/03/04 04:25:14;;;;;;;61.08;26.88;;;-0.90;99.90;;;;;;5021382;28;20093;-82
2022/03/04 04:27:41;;;;;;;62.97;25.50;;;-0.90;99.90;;;;;;5037523;28;20136;-82
2022/03/04 04:30:08;;;;;;;64.45;27.63;;;-0.80;99.90;;;;;;5020966;28;20466;-82
2022/03/04 04:32:35;;;;;;;65.35;26.98;;;-0.70;99.90;;;;;;5039662;28;20077;-82
2022/03/04 04:35:03;;;;;;;60.53;25.10;;;-0.80;99.90;;;;;;5020917;28;20052;-82
2022/03/04 04:37:29;;;;;;;63.47;26.20;;;-0.80;99.90;;;;;;5025269;28;20132;-82
2022/03/04 04:39:57;;;;;;;65.70;26.10;;;-0.80;99.90;;;;;;5021970;28;20136;-83
2022/03/04 04:42:24;;;;;;;62.92;27.27;;;-0.90;99.90;;;;;;5024641;28;20103;-82
2022/03/04 04:44:52;;;;;;;57.58;25.00;;;-0.90;99.90;;;;;;5026354;28;20128;-82
2022/03/04 04:47:19;;;;;;;56.58;25.98;;;-0.90;99.90;;;;;;5024040;28;20053;-82
2022/03/04 04:49:45;;;;;;;57.38;26.38;;;-1.00;99.90;;;;;;5022010;28;20100;-82
2022/03/04 04:52:12;;;;;;;61.50;27.33;;;-1.00;99.90;;;;;;5021882;28;20498;-82
2022/03/04 04:54:39;;;;;;;61.33;25.85;;;-1.00;99.90;;;;;;5022517;28;20080;-82
2022/03/04 04:57:06;;;;;;;62.53;26.75;;;-1.00;99.90;;;;;;5021635;28;20113;-82
2022/03/04 04:59:33;;;;;;;61.65;26.00;;;-1.00;99.90;;;;;;5040193;28;20053;-82
2022/03/04 05:02:00;;;;;;;62.05;25.15;;;-0.90;99.90;;;;;;5039745;28;20114;-82
2022/03/04 05:04:28;;;;;;;62.58;25.35;;;-0.90;99.90;;;;;;5022459;28;20083;-82
2022/03/04 05:06:55;;;;;;;64.00;25.83;;;-0.80;99.90;;;;;;5021923;28;20079;-82
2022/03/04 05:09:22;;;;;;;54.33;24.27;;;-0.80;99.90;;;;;;5021578;28;20467;-82
2022/03/04 05:11:49;;;;;;;59.33;25.75;;;-0.80;99.90;;;;;;5022311;28;20046;-82
2022/03/04 05:14:15;;;;;;;56.65;24.33;;;-0.80;99.90;;;;;;5022233;28;20096;-82
2022/03/04 05:16:42;;;;;;;60.58;25.38;;;-0.90;99.90;;;;;;5022920;28;20069;-82
2022/03/04 05:19:09;;;;;;;59.95;25.73;;;-0.90;99.90;;;;;;5041958;28;20093;-82
2022/03/04 05:21:36;;;;;;;69.25;27.02;;;-0.90;99.90;;;;;;5042121;28;20077;-82
2022/03/04 05:24:06;;;;;;;67.95;27.02;;;-1.00;99.90;;;;;;5055178;23;20349;-85
2022/03/04 05:26:39;;;;;;;72.32;33.08;;;-1.00;99.90;;;;;;5077705;28;20564;-83
2022/03/04 05:29:09;;;;;;;64.40;28.48;;;-1.00;99.90;;;;;;5076805;28;20142;-83
2022/03/04 05:31:37;;;;;;;62.88;26.67;;;-0.90;99.90;;;;;;5096127;28;20051;-82
2022/03/04 05:34:06;;;;;;;62.30;26.20;;;-0.90;99.90;;;;;;5096395;28;20122;-83
2022/03/04 05:36:33;;;;;;;64.97;25.20;;;-0.90;99.90;;;;;;5084529;28;20048;-83
2022/03/04 05:39:00;;;;;;;54.30;23.90;;;-0.90;99.90;;;;;;5100770;28;20146;-83
2022/03/04 05:41:27;;;;;;;54.72;23.13;;;-0.80;99.90;;;;;;5084625;28;20435;-84
2022/03/04 05:43:54;;;;;;;67.13;30.33;;;-0.80;99.90;;;;;;5084736;28;20128;-83
2022/03/04 05:46:20;;;;;;;58.33;26.13;;;-0.70;99.90;;;;;;5082424;28;20056;-83
2022/03/04 05:48:47;;;;;;;55.10;22.85;;;-0.70;99.90;;;;;;5083492;28;20127;-83
2022/03/04 05:51:14;;;;;;;54.70;24.23;;;-0.60;99.90;;;;;;5082155;28;20090;-83
2022/03/04 05:53:41;;;;;;;49.83;22.55;;;-0.60;99.90;;;;;;5100938;28;20468;-83
2022/03/04 05:56:09;;;;;;;67.68;23.60;;;-0.60;99.90;;;;;;5084789;28;20071;-83
2022/03/04 05:58:37;;;;;;;51.05;23.02;;;-0.60;99.90;;;;;;5102630;28;20090;-83
2022/03/04 06:01:06;;;;;;;58.47;23.60;;;-0.70;99.90;;;;;;5084065;28;20048;-83
2022/03/04 06:03:34;;;;;;;54.35;24.00;;;-0.70;99.90;;;;;;5084927;28;20052;-83
2022/03/04 06:06:03;;;;;;;69.50;30.98;;;-0.80;99.90;;;;;;5084792;28;20052;-83
2022/03/04 06:08:30;;;;;;;66.20;29.00;;;-0.90;99.90;;;;;;5085277;28;20079;-83
2022/03/04 06:10:58;;;;;;;67.65;26.92;;;-0.90;99.90;;;;;;5102226;28;20048;-83
2022/03/04 06:13:24;;;;;;;58.05;25.90;;;-0.90;99.90;;;;;;5085162;28;20071;-83
2022/03/04 06:15:51;;;;;;;65.78;27.48;;;-0.90;99.90;;;;;;5101625;28;20139;-83
2022/03/04 06:18:18;;;;;;;70.35;29.67;;;-0.90;99.90;;;;;;5083008;28;20040;-83
2022/03/04 06:20:46;;;;;;;60.42;29.50;;;-0.90;99.90;;;;;;5082703;28;20071;-83
2022/03/04 06:23:14;;;;;;;56.92;26.40;;;-0.90;99.90;;;;;;5082275;28;20044;-83
2022/03/04 06:25:41;;;;;;;132.65;63.75;;;-1.00;99.90;;;;;;5081979;28;20109;-83
2022/03/04 06:28:07;;;;;;;64.22;30.35;;;-0.90;99.90;;;;;;5083811;28;20044;-83
2022/03/04 06:30:38;;;;;;;66.55;25.88;;;-0.90;99.90;;;;;;5100189;28;20416;-83
2022/03/04 06:35:53;;;;;;;63.88;28.05;;;-0.90;99.90;;;;;;5103217;28;20143;-83
2022/03/04 06:38:20;;;;;;;58.60;25.25;;;-0.80;99.90;;;;;;5083811;28;20040;-83
2022/03/04 06:40:48;;;;;;;69.80;27.67;;;-0.70;99.90;;;;;;5083834;28;20044;-83
2022/03/04 06:43:15;;;;;;;61.10;26.05;;;-0.70;99.90;;;;;;5084157;28;20103;-83
2022/03/04 06:45:46;;;;;;;59.95;25.83;;;-0.50;99.90;;;;;;5084838;28;20055;-83
2022/03/04 06:48:17;;;;;;;58.60;25.48;;;-0.40;99.90;;;;;;5074293;28;20040;-83
2022/03/04 06:50:44;;;;;;;61.75;26.30;;;-0.30;99.90;;;;;;5074809;28;20036;-83
2022/03/04 06:53:11;;;;;;;67.60;28.00;;;-0.30;99.90;;;;;;5102830;28;20076;-83
2022/03/04 06:55:38;;;;;;;102.25;43.47;;;-0.40;99.90;;;;;;5083422;28;20214;-83
2022/03/04 06:58:04;;;;;;;85.18;38.40;;;-0.40;99.90;;;;;;5101465;28;20127;-83
2022/03/04 07:00:31;;;;;;;68.03;29.75;;;-0.30;99.90;;;;;;5099578;28;20143;-83
2022/03/04 07:02:58;;;;;;;69.38;29.65;;;-0.20;99.90;;;;;;5098618;28;20052;-83
2022/03/04 07:05:26;;;;;;;60.65;25.90;;;0.00;99.90;;;;;;5099942;28;20135;-83
2022/03/04 07:07:54;;;;;;;59.75;26.17;;;0.00;99.90;;;;;;5084175;28;20044;-83
2022/03/04 07:10:22;;;;;;;62.53;26.88;;;-0.10;99.90;;;;;;5100191;28;20052;-84
2022/03/04 07:12:49;;;;;;;69.72;26.20;;;0.10;99.90;;;;;;5100794;28;20080;-83
2022/03/04 07:15:17;;;;;;;69.45;27.80;;;0.00;99.90;;;;;;5100393;28;20074;-83
2022/03/04 07:17:45;;;;;;;64.20;26.10;;;0.00;99.90;;;;;;5082976;28;20040;-83
2022/03/04 07:20:12;;;;;;;58.72;26.48;;;0.00;99.90;;;;;;5062937;28;20501;-83
2022/03/04 07:22:39;;;;;;;62.38;26.15;;;0.10;99.90;;;;;;5080884;28;20110;-83
2022/03/04 07:25:08;;;;;;;59.20;26.60;;;0.30;99.90;;;;;;5069930;28;20056;-83
2022/03/04 07:27:36;;;;;;;70.72;27.40;;;0.20;99.90;;;;;;5087930;28;20481;-83
2022/03/04 07:30:06;;;;;;;61.55;26.83;;;0.20;99.90;;;;;;5062337;28;20045;-83
2022/03/04 07:32:33;;;;;;;57.70;25.65;;;0.40;99.90;;;;;;5062336;28;20558;-83
2022/03/04 07:34:59;;;;;;;57.38;24.50;;;0.50;99.90;;;;;;5080904;28;20071;-83
2022/03/04 07:37:27;;;;;;;62.22;27.45;;;0.50;99.90;;;;;;5084906;28;20054;-83
2022/03/04 07:39:53;;;;;;;61.65;25.83;;;0.60;99.90;;;;;;5070639;28;20048;-83
2022/03/04 07:42:21;;;;;;;61.28;26.70;;;0.50;99.90;;;;;;5088251;28;20077;-83
2022/03/04 07:44:48;;;;;;;68.88;28.02;;;0.40;99.90;;;;;;5070914;28;20078;-83
2022/03/04 07:47:15;;;;;;;61.67;26.65;;;0.30;99.90;;;;;;5074516;28;20052;-83
2022/03/04 07:49:42;;;;;;;76.28;27.30;;;0.30;99.90;;;;;;5094634;28;20103;-83
2022/03/04 07:52:09;;;;;;;57.53;25.58;;;0.30;99.90;;;;;;5074970;28;20055;-83
2022/03/04 07:54:36;;;;;;;65.43;26.15;;;0.30;99.90;;;;;;5074440;28;20293;-83
2022/03/04 07:57:03;;;;;;;63.67;26.25;;;0.60;99.90;;;;;;5074016;28;20132;-83
2022/03/04 07:59:31;;;;;;;62.03;26.48;;;0.70;99.90;;;;;;5090893;28;20112;-84
2022/03/04 08:01:58;;;;;;;63.70;26.10;;;0.80;99.90;;;;;;5083657;28;20083;-83
2022/03/04 08:04:25;;;;;;;60.38;26.20;;;0.80;99.90;;;;;;5082602;28;20048;-83
2022/03/04 08:06:52;;;;;;;66.03;26.75;;;0.80;99.90;;;;;;5081706;28;20052;-83
2022/03/04 08:09:19;;;;;;;62.25;26.83;;;0.90;99.90;;;;;;5089708;28;20041;-83
2022/03/04 08:11:47;;;;;;;66.43;27.33;;;1.00;99.90;;;;;;5088391;28;20094;-83
2022/03/04 08:14:13;;;;;;;61.67;26.30;;;1.00;99.90;;;;;;5079745;28;20048;-84
2022/03/04 08:16:40;;;;;;;67.70;29.52;;;0.90;99.90;;;;;;5087505;28;21196;-83
2022/03/04 08:19:07;;;;;;;63.42;29.27;;;0.80;99.90;;;;;;5064465;28;20190;-83
2022/03/04 08:21:34;;;;;;;69.53;28.02;;;0.80;99.90;;;;;;5075994;28;20076;-83
2022/03/04 08:24:01;;;;;;;65.40;26.90;;;0.80;99.90;;;;;;5058346;28;20573;-83
2022/03/04 08:26:28;;;;;;;64.45;27.73;;;0.90;99.90;;;;;;5058609;28;20140;-83
2022/03/04 08:28:59;;;;;;;62.20;26.52;;;1.10;99.90;;;;;;5059041;28;20466;-83
2022/03/04 08:31:26;;;;;;;65.10;27.50;;;1.20;99.90;;;;;;5057853;28;20048;-83
2022/03/04 08:33:53;;;;;;;57.90;26.38;;;1.30;99.90;;;;;;5075842;28;20107;-84
2022/03/04 08:36:19;;;;;;;61.22;26.67;;;1.60;99.90;;;;;;5057918;28;20051;-83
2022/03/04 08:38:47;;;;;;;60.05;26.33;;;1.90;99.90;;;;;;5059634;28;20079;-83
2022/03/04 08:41:14;;;;;;;61.35;26.80;;;2.10;99.90;;;;;;5063138;28;20048;-83
2022/03/04 08:43:41;;;;;;;58.20;26.95;;;2.10;99.90;;;;;;5064508;28;20088;-83
2022/03/04 08:46:13;;;;;;;54.50;25.13;;;1.70;99.90;;;;;;5082999;28;20044;-83
2022/03/04 08:48:40;;;;;;;58.78;25.88;;;1.80;99.90;;;;;;5063283;28;20119;-84
2022/03/04 08:51:07;;;;;;;58.42;25.48;;;1.80;99.90;;;;;;5063506;28;20508;-84
2022/03/04 08:53:35;;;;;;;58.92;26.83;;;1.50;99.90;;;;;;5063264;28;20110;-83
2022/03/04 08:56:04;;;;;;;66.50;28.95;;;1.50;99.90;;;;;;5062369;28;20211;-83
2022/03/04 08:58:31;;;;;;;66.57;28.60;;;1.20;99.90;;;;;;5081382;28;20496;-84
2022/03/04 09:00:58;;;;;;;58.80;26.42;;;1.40;99.90;;;;;;5063736;28;20055;-84
2022/03/04 09:03:25;;;;;;;71.13;30.17;;;1.70;99.90;;;;;;5063917;28;20053;-83
2022/03/04 09:05:52;;;;;;;77.03;29.92;;;1.90;99.90;;;;;;5064197;28;20052;-83
2022/03/04 09:08:19;;;;;;;65.97;30.67;;;1.60;99.90;;;;;;5068624;28;20139;-83
2022/03/04 09:10:46;;;;;;;60.30;31.08;;;1.30;99.90;;;;;;5087983;28;20048;-84
2022/03/04 09:13:13;;;;;;;69.07;29.05;;;1.50;99.90;;;;;;5102010;28;20513;-84
2022/03/04 09:15:40;;;;;;;130.27;58.78;;;1.40;99.90;;;;;;5084198;28;20044;-83
2022/03/04 09:18:06;;;;;;;85.35;38.50;;;1.40;99.90;;;;;;5084588;28;20051;-84
2022/03/04 09:20:33;;;;;;;64.68;30.45;;;1.40;99.90;;;;;;5083547;28;20067;-84
2022/03/04 09:23:00;;;;;;;64.35;27.98;;;1.40;99.90;;;;;;5085560;28;20079;-84
2022/03/04 09:25:27;;;;;;;65.95;28.35;;;1.60;99.90;;;;;;5083988;28;20108;-84
2022/03/04 09:27:54;;;;;;;61.15;25.75;;;1.80;99.90;;;;;;5083145;28;20523;-84
2022/03/04 09:30:21;;;;;;;56.50;25.20;;;1.90;99.90;;;;;;5082194;28;20551;-84
2022/03/04 09:32:48;;;;;;;105.93;47.00;;;2.10;99.90;;;;;;5101573;28;20072;-84
2022/03/04 09:35:17;;;;;;;66.50;30.20;;;2.20;99.90;;;;;;5101432;28;20056;-84
2022/03/04 09:37:48;;;;;;;60.53;26.60;;;2.30;99.90;;;;;;5084295;28;20044;-83
2022/03/04 09:40:15;;;;;;;52.00;23.40;;;2.40;99.90;;;;;;5083593;28;20068;-84
2022/03/04 09:42:41;;;;;;;55.75;25.67;;;2.60;99.90;;;;;;5102097;28;20094;-84
2022/03/04 09:45:08;;;;;;;140.30;81.35;;;2.80;99.90;;;;;;5100416;28;20480;-84
2022/03/04 09:47:36;;;;;;;71.82;35.15;;;2.70;99.90;;;;;;5083529;28;20130;-84
2022/03/04 09:50:04;;;;;;;65.60;29.75;;;2.70;99.90;;;;;;5083222;28;20457;-84
2022/03/04 09:52:31;;;;;;;59.45;27.65;;;2.60;99.90;;;;;;5084281;28;20044;-83
2022/03/04 09:54:59;;;;;;;70.82;35.97;;;2.40;99.90;;;;;;5083607;28;20052;-84
2022/03/04 09:57:26;;;;;;;57.05;26.08;;;2.50;99.90;;;;;;5083561;28;20040;-83
2022/03/04 09:59:53;;;;;;;66.00;27.23;;;2.50;99.90;;;;;;5083315;28;20501;-84
2022/03/04 10:02:20;;;;;;;55.00;25.27;;;2.60;99.90;;;;;;5083036;28;20098;-84
2022/03/04 10:04:57;;;;;;;48.78;22.38;;;2.40;99.90;;;;;;5083183;28;20044;-84
2022/03/04 10:07:23;;;;;;;52.15;24.30;;;2.40;99.90;;;;;;5082785;28;20131;-84
2022/03/04 10:09:50;;;;;;;56.83;25.65;;;2.60;99.90;;;;;;5083232;28;20422;-84
2022/03/04 10:12:20;;;;;;;53.38;24.25;;;2.60;99.90;;;;;;5083726;28;20074;-84
2022/03/04 10:15:01;;;;;;;58.47;25.58;;;2.60;99.90;;;;;;5082989;28;20048;-84
2022/03/04 10:17:31;;;;;;;55.88;25.05;;;2.40;99.90;;;;;;5082312;28;20048;-84
2022/03/04 10:20:00;;;;;;;57.97;24.75;;;2.20;99.90;;;;;;5082229;28;20138;-84
2022/03/04 10:22:42;;;;;;;56.33;25.17;;;2.40;99.90;;;;;;5083551;28;20094;-84
2022/03/04 10:25:14;;;;;;;51.70;23.38;;;2.30;99.90;;;;;;5083199;28;20055;-84
2022/03/04 10:27:40;;;;;;;55.13;23.48;;;2.10;99.90;;;;;;5082895;28;20143;-84
2022/03/04 10:30:08;;;;;;;51.25;22.80;;;2.30;99.90;;;;;;5082392;28;20059;-84
2022/03/04 10:32:34;;;;;;;51.20;22.38;;;2.50;99.90;;;;;;5099991;28;20108;-84
2022/03/04 10:35:08;;;;;;;46.85;22.88;;;2.40;99.90;;;;;;5099533;28;20055;-84
2022/03/04 10:37:51;;;;;;;48.35;21.02;;;2.60;99.90;;;;;;5083045;28;20557;-84
2022/03/04 10:40:26;;;;;;;46.05;21.15;;;2.80;99.90;;;;;;5084180;28;20051;-84
2022/03/04 10:43:04;;;;;;;47.47;22.55;;;2.70;99.90;;;;;;5101247;28;20468;-84
2022/03/04 10:45:34;;;;;;;50.05;21.60;;;2.80;99.90;;;;;;5083051;28;20047;-84
2022/03/04 10:48:07;;;;;;;47.17;20.77;;;2.90;99.90;;;;;;5083002;28;20048;-84
2022/03/04 10:50:34;;;;;;;45.70;20.25;;;3.00;99.90;;;;;;5101337;28;20044;-84
2022/03/04 10:53:11;;;;;;;48.83;20.75;;;3.20;99.90;;;;;;5083518;28;20044;-84
2022/03/04 10:55:44;;;;;;;40.80;19.23;;;3.60;99.90;;;;;;5077333;28;20105;-84
2022/03/04 10:58:25;;;;;;;38.67;18.67;;;4.00;99.90;;;;;;5068470;28;20059;-84
2022/03/04 11:00:55;;;;;;;44.13;19.02;;;4.50;99.90;;;;;;5062667;28;20105;-84
2022/03/04 11:03:25;;;;;;;54.95;19.35;;;4.70;99.90;;;;;;5080573;28;20060;-83
2022/03/04 11:05:55;;;;;;;50.47;19.95;;;4.70;99.90;;;;;;5067792;28;20040;-84
2022/03/04 11:08:22;;;;;;;49.45;19.67;;;5.00;99.90;;;;;;5073414;28;20056;-84
2022/03/04 11:10:51;;;;;;;42.67;18.45;;;5.20;99.90;;;;;;5070386;28;20072;-84
2022/03/04 11:13:17;;;;;;;44.28;20.90;;;5.40;99.90;;;;;;5068267;28;20091;-84
2022/03/04 11:15:46;;;;;;;38.85;18.42;;;5.10;99.90;;;;;;5062717;28;20075;-84
2022/03/04 11:18:16;;;;;;;36.17;17.80;;;5.00;99.90;;;;;;5062292;28;20440;-84
2022/03/04 11:20:46;;;;;;;55.45;24.65;;;5.00;99.90;;;;;;5068167;28;20112;-84
2022/03/04 11:23:20;;;;;;;45.10;20.45;;;4.70;99.90;;;;;;5069951;28;20111;-84
2022/03/04 11:26:02;;;;;;;40.67;18.83;;;4.30;99.90;;;;;;5068632;28;20128;-84
2022/03/04 11:28:39;;;;;;;37.33;17.55;;;4.20;99.90;;;;;;5070186;28;20052;-84
2022/03/04 11:31:08;;;;;;;34.65;16.98;;;4.50;99.90;;;;;;5069113;28;20088;-84
2022/03/04 11:33:46;;;;;;;35.45;16.70;;;4.80;99.90;;;;;;5069218;28;20051;-84
2022/03/04 11:36:16;;;;;;;37.33;16.83;;;5.20;99.90;;;;;;5069580;28;20076;-84
2022/03/04 11:38:49;;;;;;;39.20;17.92;;;5.40;99.90;;;;;;5086923;28;20049;-84
2022/03/04 11:41:18;;;;;;;36.70;16.90;;;5.10;99.90;;;;;;5086914;28;20071;-84
2022/03/04 11:43:59;;;;;;;40.92;17.10;;;4.60;99.90;;;;;;5070212;28;20060;-84
2022/03/04 11:46:58;;;;;;;35.83;18.13;;;4.70;99.90;;;;;;5069499;28;20060;-84
2022/03/04 11:49:47;;;;;;;38.05;16.58;;;4.70;99.90;;;;;;5068588;28;20091;-84
2022/03/04 11:52:42;;;;;;;37.45;18.92;;;4.70;99.90;;;;;;5069260;28;20051;-85
2022/03/04 11:55:11;;;;;;;34.15;17.02;;;4.50;99.90;;;;;;5086624;28;20076;-84
2022/03/04 11:57:42;;;;;;;33.53;17.70;;;4.70;99.90;;;;;;5068874;28;20072;-85
2022/03/04 12:00:16;;;;;;;35.80;16.90;;;4.80;99.90;;;;;;5068997;28;20516;-84
2022/03/04 12:02:55;;;;;;;41.88;17.33;;;4.30;99.90;;;;;;5069478;28;20048;-85
2022/03/04 12:05:32;;;;;;;47.80;20.85;;;4.10;99.90;;;;;;5069308;28;20079;-84
2022/03/04 12:07:59;;;;;;;38.47;18.13;;;4.10;99.90;;;;;;5069082;28;20054;-85
2022/03/04 12:10:30;;;;;;;50.75;22.65;;;4.20;99.90;;;;;;5068691;28;20501;-84
2022/03/04 12:13:08;;;;;;;37.75;17.88;;;3.80;99.90;;;;;;5068437;28;20052;-84
2022/03/04 12:15:39;;;;;;;39.58;19.80;;;3.70;99.90;;;;;;5069231;28;20048;-84
2022/03/04 12:18:27;;;;;;;46.65;24.30;;;3.70;99.90;;;;;;5068536;28;20098;-84
2022/03/04 12:21:00;;;;;;;38.33;19.60;;;3.90;99.90;;;;;;5069518;28;20488;-84
2022/03/04 12:23:28;;;;;;;38.38;18.45;;;3.90;99.90;;;;;;5069264;28;20173;-85
2022/03/04 12:25:54;;;;;;;39.15;18.40;;;3.90;99.90;;;;;;5068618;28;20144;-84
2022/03/04 12:28:42;;;;;;;55.83;28.90;;;3.90;99.90;;;;;;5069340;28;20056;-84
2022/03/04 12:31:12;;;;;;;53.75;21.63;;;3.80;99.90;;;;;;5066649;28;20056;-85
2022/03/04 12:33:40;;;;;;;37.78;18.67;;;3.60;99.90;;;;;;5065687;28;20063;-83
2022/03/04 12:36:16;;;;;;;43.88;18.63;;;3.50;99.90;;;;;;5066045;28;20045;-84
2022/03/04 12:38:50;;;;;;;36.33;18.48;;;3.60;99.90;;;;;;5065639;28;20048;-84
2022/03/04 12:41:22;;;;;;;40.45;17.63;;;3.60;99.90;;;;;;5082627;28;20051;-84